sensor_id;sensor_type;location;lat;lon;timestamp;temperature;humidity
39889;DHT22;25563;50.844;4.308;2022-12-01T00:01:07;8.30;99.90
39889;DHT22;25563;50.844;4.308;2022-12-01T00:03:33;8.30;99.90
39889;DHT22;25563;50.844;4.308;2022-12-01T00:06:00;8.30;99.90
39889;DHT22;25563;50.844;4.308;2022-12-01T00:08:28;8.30;99.90
39889;DHT22;25563;50.844;4.308;2022-12-01T00:10:54;8.30;99.90
39889;DHT22;25563;50.844;4.308;2022-12-01T00:13:21;8.40;99.90
39889;DHT22;25563;50.844;4.308;2022-12-01T00:15:47;8.30;99.90
39889;DHT22;25563;50.844;4.308;2022-12-01T00:18:14;8.10;99.90
39889;DHT22;25563;50.844;4.308;2022-12-01T00:20:41;8.20;99.90
39889;DHT22;25563;50.844;4.308;2022-12-01T00:23:07;8.10;99.90
39889;DHT22;25563;50.844;4.308;2022-12-01T00:25:32;8.10;99.90
39889;DHT22;25563;50.844;4.308;2022-12-01T00:27:58;8.00;99.90
39889;DHT22;25563;50.844;4.308;2022-12-01T00:30:24;8.10;99.90
39889;DHT22;25563;50.844;4.308;2022-12-01T00:32:51;8.20;99.90
39889;DHT22;25563;50.844;4.308;2022-12-01T00:35:16;8.10;99.90
39889;DHT22;25563;50.844;4.308;2022-12-01T00:37:43;7.90;99.90
39889;DHT22;25563;50.844;4.308;2022-12-01T00:40:10;7.90;99.90
39889;DHT22;25563;50.844;4.308;2022-12-01T00:42:36;7.70;99.90
39889;DHT22;25563;50.844;4.308;2022-12-01T00:45:02;7.60;99.90
39889;DHT22;25563;50.844;4.308;2022-12-01T00:47:31;7.60;99.90
39889;DHT22;25563;50.844;4.308;2022-12-01T00:49:57;7.60;99.90
39889;DHT22;25563;50.844;4.308;2022-12-01T00:52:23;7.60;99.90
39889;DHT22;25563;50.844;4.308;2022-12-01T00:54:48;7.70;99.90
39889;DHT22;25563;50.844;4.308;2022-12-01T00:57:14;7.70;99.90
39889;DHT22;25563;50.844;4.308;2022-12-01T00:59:40;7.70;99.90
39889;DHT22;25563;50.844;4.308;2022-12-01T01:02:06;7.80;99.90
39889;DHT22;25563;50.844;4.308;2022-12-01T01:04:34;7.80;99.90
39889;DHT22;25563;50.844;4.308;2022-12-01T01:07:01;7.90;99.90
39889;DHT22;25563;50.844;4.308;2022-12-01T01:09:27;7.90;99.90
39889;DHT22;25563;50.844;4.308;2022-12-01T01:11:54;7.90;99.90
39889;DHT22;25563;50.844;4.308;2022-12-01T01:14:21;7.80;99.90
39889;DHT22;25563;50.844;4.308;2022-12-01T01:16:47;7.80;99.90
39889;DHT22;25563;50.844;4.308;2022-12-01T01:19:15;7.80;99.90
39889;DHT22;25563;50.844;4.308;2022-12-01T01:21:41;7.80;99.90
39889;DHT22;25563;50.844;4.308;2022-12-01T01:24:08;7.70;99.90
39889;DHT22;25563;50.844;4.308;2022-12-01T01:26:34;7.90;99.90
39889;DHT22;25563;50.844;4.308;2022-12-01T01:29:03;7.90;99.90
39889;DHT22;25563;50.844;4.308;2022-12-01T01:31:30;8.00;99.90
39889;DHT22;25563;50.844;4.308;2022-12-01T01:33:56;7.90;99.90
39889;DHT22;25563;50.844;4.308;2022-12-01T01:36:23;7.90;99.90
39889;DHT22;25563;50.844;4.308;2022-12-01T01:38:49;7.80;99.90
39889;DHT22;25563;50.844;4.308;2022-12-01T01:41:20;7.90;99.90
39889;DHT22;25563;50.844;4.308;2022-12-01T01:43:52;7.90;99.90
39889;DHT22;25563;50.844;4.308;2022-12-01T01:46:25;7.70;99.90
39889;DHT22;25563;50.844;4.308;2022-12-01T01:49:04;7.60;99.90
39889;DHT22;25563;50.844;4.308;2022-12-01T01:51:51;7.60;99.90
39889;DHT22;25563;50.844;4.308;2022-12-01T01:54:23;7.70;99.90
39889;DHT22;25563;50.844;4.308;2022-12-01T01:56:51;8.00;99.90
39889;DHT22;25563;50.844;4.308;2022-12-01T01:59:21;8.10;99.90
39889;DHT22;25563;50.844;4.308;2022-12-01T02:01:55;8.00;99.90
39889;DHT22;25563;50.844;4.308;2022-12-01T02:04:23;8.10;99.90
39889;DHT22;25563;50.844;4.308;2022-12-01T02:06:50;8.10;99.90
39889;DHT22;25563;50.844;4.308;2022-12-01T02:09:16;8.30;99.90
39889;DHT22;25563;50.844;4.308;2022-12-01T02:31:22;7.40;99.90
39889;DHT22;25563;50.844;4.308;2022-12-01T02:33:57;7.40;99.90
39889;DHT22;25563;50.844;4.308;2022-12-01T02:36:57;7.40;99.90
39889;DHT22;25563;50.844;4.308;2022-12-01T02:39:35;7.40;99.90
39889;DHT22;25563;50.844;4.308;2022-12-01T02:42:16;7.50;99.90
39889;DHT22;25563;50.844;4.308;2022-12-01T02:45:10;7.20;99.90
39889;DHT22;25563;50.844;4.308;2022-12-01T02:47:39;7.20;99.90
39889;DHT22;25563;50.844;4.308;2022-12-01T02:50:07;7.20;99.90
39889;DHT22;25563;50.844;4.308;2022-12-01T02:52:37;7.20;99.90
39889;DHT22;25563;50.844;4.308;2022-12-01T02:55:03;7.30;99.90
39889;DHT22;25563;50.844;4.308;2022-12-01T02:57:29;7.30;99.90
39889;DHT22;25563;50.844;4.308;2022-12-01T02:59:55;7.40;99.90
39889;DHT22;25563;50.844;4.308;2022-12-01T03:05:00;7.40;99.90
39889;DHT22;25563;50.844;4.308;2022-12-01T03:22:04;7.40;99.90
39889;DHT22;25563;50.844;4.308;2022-12-01T03:24:33;7.30;99.90
39889;DHT22;25563;50.844;4.308;2022-12-01T03:27:00;7.20;99.90
39889;DHT22;25563;50.844;4.308;2022-12-01T03:29:34;7.30;99.90
39889;DHT22;25563;50.844;4.308;2022-12-01T03:34:53;7.20;99.90
39889;DHT22;25563;50.844;4.308;2022-12-01T03:37:32;7.30;99.90
39889;DHT22;25563;50.844;4.308;2022-12-01T03:39:59;7.30;99.90
39889;DHT22;25563;50.844;4.308;2022-12-01T03:42:34;7.20;99.90
39889;DHT22;25563;50.844;4.308;2022-12-01T03:45:15;7.20;99.90
39889;DHT22;25563;50.844;4.308;2022-12-01T03:47:43;7.20;99.90
39889;DHT22;25563;50.844;4.308;2022-12-01T03:50:11;7.20;99.90
39889;DHT22;25563;50.844;4.308;2022-12-01T03:57:53;7.10;99.90
39889;DHT22;25563;50.844;4.308;2022-12-01T04:00:21;7.20;99.90
39889;DHT22;25563;50.844;4.308;2022-12-01T04:02:47;7.30;99.90
39889;DHT22;25563;50.844;4.308;2022-12-01T04:05:14;7.30;99.90
39889;DHT22;25563;50.844;4.308;2022-12-01T04:07:40;7.40;99.90
39889;DHT22;25563;50.844;4.308;2022-12-01T04:10:09;7.40;99.90
39889;DHT22;25563;50.844;4.308;2022-12-01T04:12:34;7.50;99.90
39889;DHT22;25563;50.844;4.308;2022-12-01T04:15:11;7.60;99.90
39889;DHT22;25563;50.844;4.308;2022-12-01T04:17:39;7.60;99.90
39889;DHT22;25563;50.844;4.308;2022-12-01T04:20:09;7.70;99.90
39889;DHT22;25563;50.844;4.308;2022-12-01T04:22:38;7.70;99.90
39889;DHT22;25563;50.844;4.308;2022-12-01T04:25:05;7.70;99.90
39889;DHT22;25563;50.844;4.308;2022-12-01T04:27:34;7.70;99.90
39889;DHT22;25563;50.844;4.308;2022-12-01T04:30:00;7.80;99.90
39889;DHT22;25563;50.844;4.308;2022-12-01T04:32:26;7.80;99.90
39889;DHT22;25563;50.844;4.308;2022-12-01T04:34:51;7.80;99.90
39889;DHT22;25563;50.844;4.308;2022-12-01T04:37:20;7.80;99.90
39889;DHT22;25563;50.844;4.308;2022-12-01T04:39:47;7.70;99.90
39889;DHT22;25563;50.844;4.308;2022-12-01T04:42:16;7.60;99.90
39889;DHT22;25563;50.844;4.308;2022-12-01T04:44:41;7.60;99.90
39889;DHT22;25563;50.844;4.308;2022-12-01T04:47:07;7.60;99.90
39889;DHT22;25563;50.844;4.308;2022-12-01T04:49:33;7.50;99.90
39889;DHT22;25563;50.844;4.308;2022-12-01T04:51:59;7.50;99.90
39889;DHT22;25563;50.844;4.308;2022-12-01T04:54:26;7.50;99.90
39889;DHT22;25563;50.844;4.308;2022-12-01T04:56:52;7.50;99.90
39889;DHT22;25563;50.844;4.308;2022-12-01T04:59:18;7.50;99.90
39889;DHT22;25563;50.844;4.308;2022-12-01T05:01:44;7.40;99.90
39889;DHT22;25563;50.844;4.308;2022-12-01T05:04:13;7.50;99.90
39889;DHT22;25563;50.844;4.308;2022-12-01T05:06:40;7.50;99.90
39889;DHT22;25563;50.844;4.308;2022-12-01T05:09:06;7.60;99.90
39889;DHT22;25563;50.844;4.308;2022-12-01T05:11:33;7.70;99.90
39889;DHT22;25563;50.844;4.308;2022-12-01T05:13:59;7.70;99.90
39889;DHT22;25563;50.844;4.308;2022-12-01T05:16:38;7.70;99.90
39889;DHT22;25563;50.844;4.308;2022-12-01T05:19:04;7.70;99.90
39889;DHT22;25563;50.844;4.308;2022-12-01T05:21:51;7.70;99.90
39889;DHT22;25563;50.844;4.308;2022-12-01T05:24:18;7.80;99.90
39889;DHT22;25563;50.844;4.308;2022-12-01T05:26:49;7.80;99.90
39889;DHT22;25563;50.844;4.308;2022-12-01T05:29:15;7.70;99.90
39889;DHT22;25563;50.844;4.308;2022-12-01T05:31:44;7.80;99.90
39889;DHT22;25563;50.844;4.308;2022-12-01T05:34:12;7.70;99.90
39889;DHT22;25563;50.844;4.308;2022-12-01T05:36:38;7.70;99.90
39889;DHT22;25563;50.844;4.308;2022-12-01T05:39:10;7.70;99.90
39889;DHT22;25563;50.844;4.308;2022-12-01T05:41:35;7.80;99.90
39889;DHT22;25563;50.844;4.308;2022-12-01T05:44:02;7.80;99.90
39889;DHT22;25563;50.844;4.308;2022-12-01T05:46:30;7.70;99.90
39889;DHT22;25563;50.844;4.308;2022-12-01T05:48:58;7.70;99.90
39889;DHT22;25563;50.844;4.308;2022-12-01T05:51:25;7.70;99.90
39889;DHT22;25563;50.844;4.308;2022-12-01T05:53:51;7.80;99.90
39889;DHT22;25563;50.844;4.308;2022-12-01T05:56:17;7.90;99.90
39889;DHT22;25563;50.844;4.308;2022-12-01T05:58:43;7.70;99.90
39889;DHT22;25563;50.844;4.308;2022-12-01T06:01:12;6.60;99.90
39889;DHT22;25563;50.844;4.308;2022-12-01T06:03:41;7.70;99.90
39889;DHT22;25563;50.844;4.308;2022-12-01T06:06:10;7.80;99.90
39889;DHT22;25563;50.844;4.308;2022-12-01T06:08:36;7.90;99.90
39889;DHT22;25563;50.844;4.308;2022-12-01T06:11:05;7.90;99.90
39889;DHT22;25563;50.844;4.308;2022-12-01T06:13:31;8.00;99.90
39889;DHT22;25563;50.844;4.308;2022-12-01T06:15:58;8.00;99.90
39889;DHT22;25563;50.844;4.308;2022-12-01T06:18:25;8.00;99.90
39889;DHT22;25563;50.844;4.308;2022-12-01T06:20:51;8.10;99.90
39889;DHT22;25563;50.844;4.308;2022-12-01T06:23:17;8.10;99.90
39889;DHT22;25563;50.844;4.308;2022-12-01T06:25:43;8.00;99.90
39889;DHT22;25563;50.844;4.308;2022-12-01T06:28:10;7.90;99.90
39889;DHT22;25563;50.844;4.308;2022-12-01T06:30:37;7.80;99.90
39889;DHT22;25563;50.844;4.308;2022-12-01T06:33:03;7.70;99.90
39889;DHT22;25563;50.844;4.308;2022-12-01T06:35:29;7.70;99.90
39889;DHT22;25563;50.844;4.308;2022-12-01T06:37:55;7.70;99.90
39889;DHT22;25563;50.844;4.308;2022-12-01T06:40:20;7.80;99.90
39889;DHT22;25563;50.844;4.308;2022-12-01T06:42:47;7.90;99.90
39889;DHT22;25563;50.844;4.308;2022-12-01T06:45:13;7.80;99.90
39889;DHT22;25563;50.844;4.308;2022-12-01T06:47:39;7.70;99.90
39889;DHT22;25563;50.844;4.308;2022-12-01T06:50:08;7.60;99.90
39889;DHT22;25563;50.844;4.308;2022-12-01T06:52:36;7.60;99.90
39889;DHT22;25563;50.844;4.308;2022-12-01T06:55:03;7.60;99.90
39889;DHT22;25563;50.844;4.308;2022-12-01T06:57:31;7.50;99.90
39889;DHT22;25563;50.844;4.308;2022-12-01T06:59:57;7.50;99.90
39889;DHT22;25563;50.844;4.308;2022-12-01T07:02:23;6.90;99.90
39889;DHT22;25563;50.844;4.308;2022-12-01T07:04:49;7.50;99.90
39889;DHT22;25563;50.844;4.308;2022-12-01T07:07:17;7.50;99.90
39889;DHT22;25563;50.844;4.308;2022-12-01T07:09:55;7.50;99.90
39889;DHT22;25563;50.844;4.308;2022-12-01T07:12:21;7.60;99.90
39889;DHT22;25563;50.844;4.308;2022-12-01T07:14:48;7.50;99.90
39889;DHT22;25563;50.844;4.308;2022-12-01T07:17:13;6.50;99.90
39889;DHT22;25563;50.844;4.308;2022-12-01T07:19:39;7.40;99.90
39889;DHT22;25563;50.844;4.308;2022-12-01T07:22:05;7.50;99.90
39889;DHT22;25563;50.844;4.308;2022-12-01T07:24:34;7.60;99.90
39889;DHT22;25563;50.844;4.308;2022-12-01T07:27:00;7.50;99.90
39889;DHT22;25563;50.844;4.308;2022-12-01T07:29:26;7.90;99.90
39889;DHT22;25563;50.844;4.308;2022-12-01T07:31:52;7.40;99.90
39889;DHT22;25563;50.844;4.308;2022-12-01T07:34:21;7.40;99.90
39889;DHT22;25563;50.844;4.308;2022-12-01T07:36:48;7.50;99.90
39889;DHT22;25563;50.844;4.308;2022-12-01T07:39:15;7.60;99.90
39889;DHT22;25563;50.844;4.308;2022-12-01T07:41:44;7.60;99.90
39889;DHT22;25563;50.844;4.308;2022-12-01T07:44:11;7.60;99.90
39889;DHT22;25563;50.844;4.308;2022-12-01T07:46:37;7.90;99.90
39889;DHT22;25563;50.844;4.308;2022-12-01T07:49:05;7.60;99.90
39889;DHT22;25563;50.844;4.308;2022-12-01T07:51:32;7.50;99.90
39889;DHT22;25563;50.844;4.308;2022-12-01T07:54:03;7.50;99.90
39889;DHT22;25563;50.844;4.308;2022-12-01T07:56:32;7.60;99.90
39889;DHT22;25563;50.844;4.308;2022-12-01T07:59:01;8.40;99.90
39889;DHT22;25563;50.844;4.308;2022-12-01T08:01:27;8.60;99.90
39889;DHT22;25563;50.844;4.308;2022-12-01T08:03:54;7.70;99.90
39889;DHT22;25563;50.844;4.308;2022-12-01T08:06:24;7.80;99.90
39889;DHT22;25563;50.844;4.308;2022-12-01T08:09:00;7.70;99.90
39889;DHT22;25563;50.844;4.308;2022-12-01T08:11:31;8.60;99.90
39889;DHT22;25563;50.844;4.308;2022-12-01T08:13:56;7.80;99.90
39889;DHT22;25563;50.844;4.308;2022-12-01T08:16:23;7.70;99.90
39889;DHT22;25563;50.844;4.308;2022-12-01T08:18:52;7.60;99.90
39889;DHT22;25563;50.844;4.308;2022-12-01T08:21:24;8.10;99.90
39889;DHT22;25563;50.844;4.308;2022-12-01T08:23:54;7.60;99.90
39889;DHT22;25563;50.844;4.308;2022-12-01T08:26:24;7.60;99.90
39889;DHT22;25563;50.844;4.308;2022-12-01T08:28:50;7.80;99.90
39889;DHT22;25563;50.844;4.308;2022-12-01T08:31:27;7.80;99.90
39889;DHT22;25563;50.844;4.308;2022-12-01T08:33:56;7.80;99.90
39889;DHT22;25563;50.844;4.308;2022-12-01T08:36:23;7.90;99.90
39889;DHT22;25563;50.844;4.308;2022-12-01T08:38:51;8.00;99.90
39889;DHT22;25563;50.844;4.308;2022-12-01T08:41:17;8.00;99.90
39889;DHT22;25563;50.844;4.308;2022-12-01T08:43:44;8.00;99.90
39889;DHT22;25563;50.844;4.308;2022-12-01T08:46:11;8.10;99.90
39889;DHT22;25563;50.844;4.308;2022-12-01T08:48:55;8.10;99.90
39889;DHT22;25563;50.844;4.308;2022-12-01T08:51:27;7.00;99.90
39889;DHT22;25563;50.844;4.308;2022-12-01T08:53:54;8.00;99.90
39889;DHT22;25563;50.844;4.308;2022-12-01T08:56:31;8.10;99.90
39889;DHT22;25563;50.844;4.308;2022-12-01T08:58:57;8.10;99.90
39889;DHT22;25563;50.844;4.308;2022-12-01T09:01:26;8.20;99.90
39889;DHT22;25563;50.844;4.308;2022-12-01T09:03:52;8.00;99.90
39889;DHT22;25563;50.844;4.308;2022-12-01T09:06:40;8.20;99.90
39889;DHT22;25563;50.844;4.308;2022-12-01T09:09:13;8.20;99.90
39889;DHT22;25563;50.844;4.308;2022-12-01T09:11:48;7.40;99.90
39889;DHT22;25563;50.844;4.308;2022-12-01T09:14:35;8.20;99.90
39889;DHT22;25563;50.844;4.308;2022-12-01T09:17:06;8.20;99.90
39889;DHT22;25563;50.844;4.308;2022-12-01T09:19:35;8.40;99.90
39889;DHT22;25563;50.844;4.308;2022-12-01T09:22:02;8.10;99.90
39889;DHT22;25563;50.844;4.308;2022-12-01T09:24:28;8.10;99.90
39889;DHT22;25563;50.844;4.308;2022-12-01T09:26:55;8.10;99.90
39889;DHT22;25563;50.844;4.308;2022-12-01T09:29:21;8.20;99.90
39889;DHT22;25563;50.844;4.308;2022-12-01T09:31:48;7.50;99.90
39889;DHT22;25563;50.844;4.308;2022-12-01T09:34:22;8.30;99.90
39889;DHT22;25563;50.844;4.308;2022-12-01T09:36:48;8.40;99.90
39889;DHT22;25563;50.844;4.308;2022-12-01T09:39:18;8.10;99.90
39889;DHT22;25563;50.844;4.308;2022-12-01T09:41:47;8.10;99.90
39889;DHT22;25563;50.844;4.308;2022-12-01T09:47:18;8.10;99.90
39889;DHT22;25563;50.844;4.308;2022-12-01T09:50:15;7.90;99.90
39889;DHT22;25563;50.844;4.308;2022-12-01T09:52:58;8.20;99.90
39889;DHT22;25563;50.844;4.308;2022-12-01T09:55:25;8.20;99.90
39889;DHT22;25563;50.844;4.308;2022-12-01T09:57:54;8.40;99.90
39889;DHT22;25563;50.844;4.308;2022-12-01T10:00:23;8.40;99.90
39889;DHT22;25563;50.844;4.308;2022-12-01T10:05:47;8.30;99.90
39889;DHT22;25563;50.844;4.308;2022-12-01T10:08:15;8.40;99.90
39889;DHT22;25563;50.844;4.308;2022-12-01T10:10:48;8.40;99.90
39889;DHT22;25563;50.844;4.308;2022-12-01T10:13:22;8.60;99.90
39889;DHT22;25563;50.844;4.308;2022-12-01T10:18:57;8.70;99.90
39889;DHT22;25563;50.844;4.308;2022-12-01T10:30:11;8.90;99.90
39889;DHT22;25563;50.844;4.308;2022-12-01T10:35:39;9.00;99.90
39889;DHT22;25563;50.844;4.308;2022-12-01T10:38:13;9.10;99.90
39889;DHT22;25563;50.844;4.308;2022-12-01T10:40:40;9.30;99.90
39889;DHT22;25563;50.844;4.308;2022-12-01T10:43:08;9.30;99.90
39889;DHT22;25563;50.844;4.308;2022-12-01T10:45:39;9.30;99.90
39889;DHT22;25563;50.844;4.308;2022-12-01T10:48:18;9.30;99.90
39889;DHT22;25563;50.844;4.308;2022-12-01T10:50:52;9.40;99.90
39889;DHT22;25563;50.844;4.308;2022-12-01T10:56:13;9.50;99.90
39889;DHT22;25563;50.844;4.308;2022-12-01T10:58:48;9.50;99.90
39889;DHT22;25563;50.844;4.308;2022-12-01T11:07:41;9.30;99.90
39889;DHT22;25563;50.844;4.308;2022-12-01T11:12:44;9.40;99.90
39889;DHT22;25563;50.844;4.308;2022-12-01T11:15:27;9.60;99.90
39889;DHT22;25563;50.844;4.308;2022-12-01T11:18:01;9.60;99.90
39889;DHT22;25563;50.844;4.308;2022-12-01T11:23:21;9.90;99.90
39889;DHT22;25563;50.844;4.308;2022-12-01T11:26:16;9.90;99.90
39889;DHT22;25563;50.844;4.308;2022-12-01T11:29:06;9.80;99.90
39889;DHT22;25563;50.844;4.308;2022-12-01T11:31:48;9.80;99.90
39889;DHT22;25563;50.844;4.308;2022-12-01T11:34:32;9.90;99.90
39889;DHT22;25563;50.844;4.308;2022-12-01T11:37:06;9.90;99.90
39889;DHT22;25563;50.844;4.308;2022-12-01T11:39:37;9.90;99.90
39889;DHT22;25563;50.844;4.308;2022-12-01T11:47:19;9.80;99.90
39889;DHT22;25563;50.844;4.308;2022-12-01T11:49:52;9.90;99.90
39889;DHT22;25563;50.844;4.308;2022-12-01T11:52:24;9.70;99.90
39889;DHT22;25563;50.844;4.308;2022-12-01T11:57:39;9.60;99.90
39889;DHT22;25563;50.844;4.308;2022-12-01T12:05:48;10.00;99.90
39889;DHT22;25563;50.844;4.308;2022-12-01T12:08:45;10.00;99.90
39889;DHT22;25563;50.844;4.308;2022-12-01T12:11:17;10.00;99.90
39889;DHT22;25563;50.844;4.308;2022-12-01T12:22:20;9.50;99.90
39889;DHT22;25563;50.844;4.308;2022-12-01T12:25:31;9.20;99.90
39889;DHT22;25563;50.844;4.308;2022-12-01T12:28:30;9.30;99.90
39889;DHT22;25563;50.844;4.308;2022-12-01T12:31:09;9.40;99.90
39889;DHT22;25563;50.844;4.308;2022-12-01T12:37:04;9.20;99.90
39889;DHT22;25563;50.844;4.308;2022-12-01T12:40:02;9.40;99.90
39889;DHT22;25563;50.844;4.308;2022-12-01T12:51:36;9.50;99.90
39889;DHT22;25563;50.844;4.308;2022-12-01T12:54:29;9.50;99.90
39889;DHT22;25563;50.844;4.308;2022-12-01T12:57:15;9.50;99.90
39889;DHT22;25563;50.844;4.308;2022-12-01T13:00:12;9.30;99.90
39889;DHT22;25563;50.844;4.308;2022-12-01T13:05:58;9.50;99.90
39889;DHT22;25563;50.844;4.308;2022-12-01T13:16:45;9.60;99.90
39889;DHT22;25563;50.844;4.308;2022-12-01T13:21:42;9.50;99.90
39889;DHT22;25563;50.844;4.308;2022-12-01T13:24:18;9.30;99.90
39889;DHT22;25563;50.844;4.308;2022-12-01T13:26:53;9.10;99.90
39889;DHT22;25563;50.844;4.308;2022-12-01T13:29:24;9.10;99.90
39889;DHT22;25563;50.844;4.308;2022-12-01T13:31:54;9.30;99.90
39889;DHT22;25563;50.844;4.308;2022-12-01T13:34:41;9.20;99.90
39889;DHT22;25563;50.844;4.308;2022-12-01T13:37:13;9.10;99.90
39889;DHT22;25563;50.844;4.308;2022-12-01T13:39:53;9.00;99.90
39889;DHT22;25563;50.844;4.308;2022-12-01T13:42:30;9.00;99.90
39889;DHT22;25563;50.844;4.308;2022-12-01T13:45:16;8.90;99.90
39889;DHT22;25563;50.844;4.308;2022-12-01T13:53:34;9.60;99.90
39889;DHT22;25563;50.844;4.308;2022-12-01T13:58:49;9.10;99.90
39889;DHT22;25563;50.844;4.308;2022-12-01T14:06:47;9.00;99.90
39889;DHT22;25563;50.844;4.308;2022-12-01T14:09:31;8.90;99.90
39889;DHT22;25563;50.844;4.308;2022-12-01T14:14:58;8.80;99.90
39889;DHT22;25563;50.844;4.308;2022-12-01T14:17:33;9.00;99.90
39889;DHT22;25563;50.844;4.308;2022-12-01T14:22:37;9.20;99.90
39889;DHT22;25563;50.844;4.308;2022-12-01T14:25:28;9.40;99.90
39889;DHT22;25563;50.844;4.308;2022-12-01T14:28:00;9.40;99.90
39889;DHT22;25563;50.844;4.308;2022-12-01T14:39:13;9.40;99.20
39889;DHT22;25563;50.844;4.308;2022-12-01T14:41:45;9.40;99.20
39889;DHT22;25563;50.844;4.308;2022-12-01T14:52:43;9.30;99.50
39889;DHT22;25563;50.844;4.308;2022-12-01T14:55:19;9.40;99.60
39889;DHT22;25563;50.844;4.308;2022-12-01T14:57:58;9.50;99.50
39889;DHT22;25563;50.844;4.308;2022-12-01T15:00:24;9.20;99.20
39889;DHT22;25563;50.844;4.308;2022-12-01T15:03:02;9.10;99.00
39889;DHT22;25563;50.844;4.308;2022-12-01T15:05:31;9.30;99.00
39889;DHT22;25563;50.844;4.308;2022-12-01T15:08:14;9.40;99.20
39889;DHT22;25563;50.844;4.308;2022-12-01T15:10:58;8.60;99.00
39889;DHT22;25563;50.844;4.308;2022-12-01T15:15:55;8.80;99.50
39889;DHT22;25563;50.844;4.308;2022-12-01T15:18:25;8.20;99.50
39889;DHT22;25563;50.844;4.308;2022-12-01T15:23:32;9.10;99.60
39889;DHT22;25563;50.844;4.308;2022-12-01T15:25:58;10.00;99.80
39889;DHT22;25563;50.844;4.308;2022-12-01T15:28:35;9.10;99.80
39889;DHT22;25563;50.844;4.308;2022-12-01T15:31:06;9.00;99.80
39889;DHT22;25563;50.844;4.308;2022-12-01T15:33:35;8.90;99.90
39889;DHT22;25563;50.844;4.308;2022-12-01T15:36:09;8.80;99.90
39889;DHT22;25563;50.844;4.308;2022-12-01T15:38:36;8.90;99.90
39889;DHT22;25563;50.844;4.308;2022-12-01T15:41:05;8.80;99.90
39889;DHT22;25563;50.844;4.308;2022-12-01T15:43:33;8.70;99.90
39889;DHT22;25563;50.844;4.308;2022-12-01T15:46:31;8.70;99.90
39889;DHT22;25563;50.844;4.308;2022-12-01T15:49:17;8.80;99.90
39889;DHT22;25563;50.844;4.308;2022-12-01T15:51:45;8.90;99.90
39889;DHT22;25563;50.844;4.308;2022-12-01T15:54:22;9.10;99.90
39889;DHT22;25563;50.844;4.308;2022-12-01T15:56:54;8.10;99.60
39889;DHT22;25563;50.844;4.308;2022-12-01T15:59:26;9.00;99.80
39889;DHT22;25563;50.844;4.308;2022-12-01T16:01:53;9.00;99.80
39889;DHT22;25563;50.844;4.308;2022-12-01T16:04:28;9.00;99.90
39889;DHT22;25563;50.844;4.308;2022-12-01T16:07:05;8.90;99.80
39889;DHT22;25563;50.844;4.308;2022-12-01T16:09:37;8.90;99.90
39889;DHT22;25563;50.844;4.308;2022-12-01T16:12:27;8.90;99.90
39889;DHT22;25563;50.844;4.308;2022-12-01T16:15:12;8.90;99.90
39889;DHT22;25563;50.844;4.308;2022-12-01T16:17:59;8.90;99.90
39889;DHT22;25563;50.844;4.308;2022-12-01T16:20:38;8.90;99.90
39889;DHT22;25563;50.844;4.308;2022-12-01T16:23:14;8.80;99.90
39889;DHT22;25563;50.844;4.308;2022-12-01T16:25:46;8.70;99.90
39889;DHT22;25563;50.844;4.308;2022-12-01T16:28:32;8.60;99.90
39889;DHT22;25563;50.844;4.308;2022-12-01T16:31:17;8.60;99.90
39889;DHT22;25563;50.844;4.308;2022-12-01T16:33:47;8.60;99.90
39889;DHT22;25563;50.844;4.308;2022-12-01T16:36:30;8.60;99.90
39889;DHT22;25563;50.844;4.308;2022-12-01T16:39:04;8.50;99.90
39889;DHT22;25563;50.844;4.308;2022-12-01T16:41:31;8.50;99.90
39889;DHT22;25563;50.844;4.308;2022-12-01T16:43:57;8.50;99.90
39889;DHT22;25563;50.844;4.308;2022-12-01T16:46:43;8.50;99.90
39889;DHT22;25563;50.844;4.308;2022-12-01T16:49:10;8.60;99.90
39889;DHT22;25563;50.844;4.308;2022-12-01T16:51:38;8.60;99.90
39889;DHT22;25563;50.844;4.308;2022-12-01T16:54:04;8.70;99.90
39889;DHT22;25563;50.844;4.308;2022-12-01T16:56:31;8.80;99.90
39889;DHT22;25563;50.844;4.308;2022-12-01T16:58:59;8.70;99.90
39889;DHT22;25563;50.844;4.308;2022-12-01T17:01:27;8.60;99.90
39889;DHT22;25563;50.844;4.308;2022-12-01T17:03:58;8.50;99.90
39889;DHT22;25563;50.844;4.308;2022-12-01T17:06:24;8.50;99.90
39889;DHT22;25563;50.844;4.308;2022-12-01T17:08:52;8.60;99.90
39889;DHT22;25563;50.844;4.308;2022-12-01T17:11:22;8.50;99.90
39889;DHT22;25563;50.844;4.308;2022-12-01T17:13:51;8.40;99.90
39889;DHT22;25563;50.844;4.308;2022-12-01T17:16:17;8.30;99.90
39889;DHT22;25563;50.844;4.308;2022-12-01T17:18:43;8.20;99.90
39889;DHT22;25563;50.844;4.308;2022-12-01T17:21:10;8.10;99.90
39889;DHT22;25563;50.844;4.308;2022-12-01T17:23:36;8.20;99.90
39889;DHT22;25563;50.844;4.308;2022-12-01T17:26:11;8.20;99.90
39889;DHT22;25563;50.844;4.308;2022-12-01T17:28:39;8.10;99.90
39889;DHT22;25563;50.844;4.308;2022-12-01T17:31:06;8.10;99.90
39889;DHT22;25563;50.844;4.308;2022-12-01T17:33:32;9.00;99.90
39889;DHT22;25563;50.844;4.308;2022-12-01T17:36:03;8.10;99.90
39889;DHT22;25563;50.844;4.308;2022-12-01T17:38:33;8.20;99.90
39889;DHT22;25563;50.844;4.308;2022-12-01T17:41:03;8.10;99.90
39889;DHT22;25563;50.844;4.308;2022-12-01T17:43:32;8.20;99.90
39889;DHT22;25563;50.844;4.308;2022-12-01T17:45:59;8.40;99.90
39889;DHT22;25563;50.844;4.308;2022-12-01T17:48:25;8.30;99.90
39889;DHT22;25563;50.844;4.308;2022-12-01T17:50:53;8.30;99.90
39889;DHT22;25563;50.844;4.308;2022-12-01T17:53:20;8.30;99.90
39889;DHT22;25563;50.844;4.308;2022-12-01T17:55:47;8.40;99.90
39889;DHT22;25563;50.844;4.308;2022-12-01T17:58:13;8.50;99.90
39889;DHT22;25563;50.844;4.308;2022-12-01T18:00:42;8.40;99.90
39889;DHT22;25563;50.844;4.308;2022-12-01T18:03:11;8.50;99.90
39889;DHT22;25563;50.844;4.308;2022-12-01T18:05:37;8.60;99.90
39889;DHT22;25563;50.844;4.308;2022-12-01T18:08:05;8.60;99.90
39889;DHT22;25563;50.844;4.308;2022-12-01T18:10:31;8.60;99.90
39889;DHT22;25563;50.844;4.308;2022-12-01T18:12:58;8.70;99.90
39889;DHT22;25563;50.844;4.308;2022-12-01T18:15:24;8.70;99.90
39889;DHT22;25563;50.844;4.308;2022-12-01T18:17:53;8.70;99.90
39889;DHT22;25563;50.844;4.308;2022-12-01T18:20:19;8.00;99.90
39889;DHT22;25563;50.844;4.308;2022-12-01T18:22:45;8.70;99.90
39889;DHT22;25563;50.844;4.308;2022-12-01T18:25:11;8.70;99.90
39889;DHT22;25563;50.844;4.308;2022-12-01T18:27:39;8.70;99.90
39889;DHT22;25563;50.844;4.308;2022-12-01T18:30:06;8.70;99.90
39889;DHT22;25563;50.844;4.308;2022-12-01T18:32:32;8.70;99.90
39889;DHT22;25563;50.844;4.308;2022-12-01T18:35:01;8.50;99.90
39889;DHT22;25563;50.844;4.308;2022-12-01T18:37:27;8.40;99.90
39889;DHT22;25563;50.844;4.308;2022-12-01T18:39:56;8.20;99.90
39889;DHT22;25563;50.844;4.308;2022-12-01T18:42:22;8.20;99.90
39889;DHT22;25563;50.844;4.308;2022-12-01T18:44:48;8.10;99.90
39889;DHT22;25563;50.844;4.308;2022-12-01T18:47:14;8.20;99.90
39889;DHT22;25563;50.844;4.308;2022-12-01T18:49:40;8.10;99.90
39889;DHT22;25563;50.844;4.308;2022-12-01T18:52:09;8.10;99.90
39889;DHT22;25563;50.844;4.308;2022-12-01T18:54:36;8.20;99.90
39889;DHT22;25563;50.844;4.308;2022-12-01T18:57:02;8.10;99.90